Hebbronville, Texas
Current Conditions -  °F | °C
As of 8:35 AM on Monday 22 Dec 2014 (Local Time) from KHBV Reporting Station
Heavy Rain Heavy Rain  
Wind Chill: 56°   Ceiling: 200
Heat Index: 56°   Visibility: 2mi
Dew Point: 55°   Wind: 12mph
Humidity: 97%   Direction: 190°S
Pressure: 29.79"   Gusts: NA
Location:  27.31°N, 98.68°W
Report Text: KHBV 221435Z AUTO 19010KT 2SM +RA OVC002 13/13 A2979 RMK AO2 VIS 1V5 T01340130
Loading
Personal Weather Stations






























Interactive Weather Map New forecast layout! Learn more

10-Day Weather Forecast

Advertisements
Track Severe Weather on mobile